KLUK/LUK METAR and TAF weather

Enter ICAO airport designator
Station Type Date Time Source
KLUK METAR 2020/01/29 12:53 UTC NOAA

KLUK 291253Z 05006KT 10SM OVC030 01/M02 A3018 RMK AO2 SLP222 T00111022


Station Type Date Time Source
KLUK Decoded METAR 2020/01/29 12:53 UTC NOAA

CINCINNATI MUN LUNKEN FLD, OH, United States (KLUK) 39-06N 84-25W 155M
Jan 29, 2020 - 07:53 AM EST / 2020.01.29 1253 UTC
Wind: from the NE (050 degrees) at 7 MPH (6 KT):0
Visibility: 10 mile(s):0
Sky conditions: overcast
Temperature: 34.0 F (1.1 C)
Windchill: 28 F (-2 C):1
Dew Point: 28.0 F (-2.2 C)
Relative Humidity: 78%
Pressure (altimeter): 30.18 in. Hg (1022 hPa)
ob: KLUK 291253Z 05006KT 10SM OVC030 01/M02 A3018 RMK AO2 SLP222 T00111022
cycle: 13

Station Type Date Time Source
KLUK TAF 2020/01/29 12:30 UTC NOAA

TAF KLUK 291128Z 2912/3012 00000KT P6SM OVC025
FM300000 05004KT P6SM OVC035
FM300700 VRB03KT P6SM OVC025

Example: see airport list